createdAt,value
2023-05-12T00:01:03.296Z,13.93
2023-05-12T00:03:34.900Z,13.72
2023-05-12T00:06:06.283Z,10.63
2023-05-12T00:08:36.924Z,12.35
2023-05-12T00:11:08.942Z,14.70
2023-05-12T00:13:40.986Z,16.12
2023-05-12T00:16:11.769Z,24.70
2023-05-12T00:18:42.343Z,18.52
2023-05-12T00:21:13.002Z,13.45
2023-05-12T00:23:43.986Z,16.65
2023-05-12T00:26:15.173Z,13.53
2023-05-12T00:28:48.048Z,17.75
2023-05-12T00:31:18.789Z,16.45
2023-05-12T00:33:49.448Z,24.95
2023-05-12T00:36:20.084Z,18.95
2023-05-12T00:38:50.671Z,17.77
2023-05-12T00:41:21.691Z,15.00
2023-05-12T00:43:52.405Z,13.75
2023-05-12T00:46:23.327Z,22.77
2023-05-12T00:48:54.335Z,20.52
2023-05-12T00:51:26.350Z,27.62
2023-05-12T00:53:58.998Z,15.53
2023-05-12T00:56:29.900Z,17.70
2023-05-12T00:59:00.551Z,16.48
2023-05-12T01:01:31.934Z,18.82
2023-05-12T01:04:03.843Z,14.13
2023-05-12T01:06:43.044Z,14.58
2023-05-12T01:09:15.067Z,17.62
2023-05-12T01:11:45.632Z,20.30
2023-05-12T01:14:16.184Z,15.20
2023-05-12T01:16:55.269Z,14.15
2023-05-12T01:19:43.381Z,12.87
2023-05-12T01:22:14.677Z,16.93
2023-05-12T01:24:53.931Z,15.85
2023-05-12T01:27:27.356Z,15.32
2023-05-12T01:30:02.673Z,12.33
2023-05-12T01:32:33.180Z,12.88
2023-05-12T01:35:04.002Z,15.38
2023-05-12T01:37:34.887Z,20.08
2023-05-12T01:40:06.305Z,12.33
2023-05-12T01:42:38.763Z,10.55
2023-05-12T01:45:10.423Z,13.98
2023-05-12T01:47:41.077Z,12.93
2023-05-12T01:50:12.133Z,11.38
2023-05-12T01:52:44.337Z,12.80
2023-05-12T01:55:14.981Z,18.95
2023-05-12T01:57:45.885Z,22.05
2023-05-12T02:00:17.053Z,12.93
2023-05-12T02:02:47.789Z,27.13
2023-05-12T02:05:19.999Z,13.62
2023-05-12T02:07:51.505Z,13.77
2023-05-12T02:10:22.285Z,15.15
2023-05-12T02:12:53.074Z,20.60
2023-05-12T02:15:25.560Z,12.90
2023-05-12T02:17:58.034Z,22.07
2023-05-12T02:20:29.754Z,14.78
2023-05-12T02:23:03.037Z,15.45
2023-05-12T02:25:34.253Z,17.05
2023-05-12T02:28:05.005Z,15.98
2023-05-12T02:30:42.120Z,12.65
2023-05-12T02:33:13.947Z,13.60
2023-05-12T02:35:46.548Z,16.23
2023-05-12T02:38:17.223Z,13.72
2023-05-12T02:40:51.656Z,17.25
2023-05-12T02:43:22.388Z,19.67
2023-05-12T02:45:54.925Z,17.12
2023-05-12T02:48:25.655Z,16.37
2023-05-12T02:50:56.193Z,19.13
2023-05-12T02:53:27.509Z,17.15
2023-05-12T02:55:58.183Z,12.98
2023-05-12T02:58:28.886Z,15.13
2023-05-12T03:01:09.349Z,21.40
2023-05-12T03:03:32.032Z,23.02
2023-05-12T03:06:04.620Z,16.03
2023-05-12T03:08:36.224Z,14.47
2023-05-12T03:11:06.959Z,13.17
2023-05-12T03:13:39.125Z,16.80
2023-05-12T03:16:09.844Z,16.70
2023-05-12T03:18:40.838Z,14.03
2023-05-12T03:21:11.702Z,10.13
2023-05-12T03:23:42.567Z,13.60
2023-05-12T03:26:13.157Z,16.47
2023-05-12T03:28:43.696Z,11.97
2023-05-12T03:31:14.313Z,12.00
2023-05-12T03:33:46.600Z,15.45
2023-05-12T03:36:17.296Z,13.78
2023-05-12T03:38:48.005Z,19.98
2023-05-12T03:41:18.862Z,23.55
2023-05-12T03:43:49.717Z,14.83
2023-05-12T03:46:20.892Z,17.45
2023-05-12T03:48:51.617Z,15.88
2023-05-12T03:51:22.182Z,12.40
2023-05-12T03:53:54.373Z,14.80
2023-05-12T03:56:26.362Z,20.30
2023-05-12T03:58:57.727Z,20.30
2023-05-12T04:01:31.492Z,22.07
2023-05-12T04:04:02.336Z,13.70
2023-05-12T04:06:33.142Z,11.08
2023-05-12T04:09:03.979Z,16.60
2023-05-12T04:11:34.452Z,13.23
2023-05-12T04:14:05.023Z,16.65
2023-05-12T04:16:36.954Z,15.25
2023-05-12T04:19:07.813Z,16.42
2023-05-12T04:21:38.697Z,18.35
2023-05-12T04:24:10.157Z,16.32
2023-05-12T04:26:43.304Z,18.45
2023-05-12T04:29:17.664Z,15.23
2023-05-12T04:31:48.240Z,12.30
2023-05-12T04:34:19.619Z,14.43
2023-05-12T04:36:50.189Z,17.42
2023-05-12T04:39:23.630Z,16.27
2023-05-12T04:41:54.340Z,15.75
2023-05-12T04:44:24.909Z,15.83
2023-05-12T04:46:56.574Z,11.43
2023-05-12T04:49:27.530Z,11.27
2023-05-12T04:51:58.371Z,16.57
2023-05-12T04:54:30.352Z,17.98
2023-05-12T04:57:00.948Z,11.73
2023-05-12T04:59:31.847Z,14.20
2023-05-12T05:02:02.590Z,19.37
2023-05-12T05:04:34.177Z,15.23
2023-05-12T05:07:05.008Z,19.87
2023-05-12T05:09:38.740Z,13.38
2023-05-12T05:12:09.542Z,11.93
2023-05-12T05:14:40.187Z,15.00
2023-05-12T05:17:12.524Z,17.98
2023-05-12T05:19:54.937Z,17.87
2023-05-12T05:22:16.848Z,18.87
2023-05-12T05:24:47.512Z,20.97
2023-05-12T05:27:20.033Z,16.65
2023-05-12T05:29:53.481Z,19.05
2023-05-12T05:32:26.601Z,12.70
2023-05-12T05:34:56.920Z,19.67
2023-05-12T05:37:28.189Z,12.63
2023-05-12T05:39:59.178Z,12.70
2023-05-12T05:42:30.020Z,16.37
2023-05-12T05:45:01.041Z,12.60
2023-05-12T05:47:34.393Z,11.88
2023-05-12T05:50:06.320Z,15.83
2023-05-12T05:52:36.858Z,16.87
2023-05-12T05:55:08.060Z,12.03
2023-05-12T05:57:39.060Z,16.15
2023-05-12T06:00:10.628Z,11.73
2023-05-12T06:02:43.224Z,12.95
2023-05-12T06:05:14.537Z,8.08
2023-05-12T06:07:45.435Z,12.35
2023-05-12T06:10:16.169Z,11.95
2023-05-12T06:12:46.839Z,10.32
2023-05-12T06:15:17.709Z,7.70
2023-05-12T06:17:50.189Z,17.90
2023-05-12T06:20:22.734Z,10.78
2023-05-12T06:22:53.480Z,9.80
2023-05-12T06:25:24.152Z,11.40
2023-05-12T06:27:54.765Z,12.53
2023-05-12T06:30:25.604Z,11.95
2023-05-12T06:32:57.885Z,16.97
2023-05-12T06:35:30.152Z,12.78
2023-05-12T06:38:00.923Z,17.07
2023-05-12T06:40:33.066Z,14.15
2023-05-12T06:43:04.773Z,15.20
2023-05-12T06:45:36.643Z,12.68
2023-05-12T06:48:09.601Z,11.10
2023-05-12T06:50:40.336Z,18.45
2023-05-12T06:53:11.008Z,18.98
2023-05-12T06:55:43.277Z,19.30
2023-05-12T06:58:14.083Z,14.35
2023-05-12T07:00:44.694Z,12.07
2023-05-12T07:03:15.465Z,13.60
2023-05-12T07:05:47.379Z,10.18
2023-05-12T07:08:18.337Z,8.75
2023-05-12T07:10:49.045Z,13.70
2023-05-12T07:13:20.289Z,9.93
2023-05-12T07:15:51.128Z,10.13
2023-05-12T07:18:21.822Z,8.68
2023-05-12T07:20:53.349Z,9.73
2023-05-12T07:23:24.109Z,13.80
2023-05-12T07:25:54.576Z,9.20
2023-05-12T07:28:25.389Z,6.50
2023-05-12T07:30:56.027Z,10.13
2023-05-12T07:33:26.736Z,9.10
2023-05-12T07:35:57.539Z,8.35
2023-05-12T07:38:30.078Z,8.90
2023-05-12T07:41:02.086Z,9.13
2023-05-12T07:43:34.421Z,8.05
2023-05-12T07:46:05.284Z,5.87
2023-05-12T07:48:37.587Z,9.75
2023-05-12T07:51:11.221Z,7.40
2023-05-12T07:53:42.091Z,9.73
2023-05-12T07:56:17.795Z,11.75
2023-05-12T07:58:48.636Z,6.92
2023-05-12T08:01:20.907Z,11.90
2023-05-12T08:03:52.215Z,6.25
2023-05-12T08:06:25.037Z,8.23
2023-05-12T08:08:56.863Z,6.33
2023-05-12T08:11:27.756Z,10.03
2023-05-12T08:13:58.544Z,8.30
2023-05-12T08:16:29.365Z,8.18
2023-05-12T08:19:00.393Z,8.60
2023-05-12T08:21:33.165Z,7.65
2023-05-12T08:24:05.064Z,8.88
2023-05-12T08:26:35.781Z,7.08
2023-05-12T08:29:06.990Z,6.55
2023-05-12T08:31:40.430Z,11.65
2023-05-12T08:34:11.738Z,7.53
2023-05-12T08:36:43.795Z,6.17
2023-05-12T08:39:15.987Z,6.67
2023-05-12T08:41:52.658Z,7.53
2023-05-12T08:44:27.233Z,5.50
2023-05-12T08:46:59.204Z,5.00
2023-05-12T08:49:32.715Z,5.72
2023-05-12T08:52:04.226Z,9.15
2023-05-12T08:54:45.578Z,5.75
2023-05-12T08:57:11.002Z,10.23
2023-05-12T08:59:44.834Z,9.63
2023-05-12T09:02:18.265Z,7.72
2023-05-12T09:04:49.042Z,8.15
2023-05-12T09:07:20.872Z,7.22
2023-05-12T09:09:57.301Z,9.43
2023-05-12T09:12:30.884Z,9.93
2023-05-12T09:15:07.875Z,8.30
2023-05-12T09:17:38.779Z,11.65
2023-05-12T09:20:20.593Z,8.65
2023-05-12T09:22:42.630Z,10.48
2023-05-12T09:25:19.219Z,7.10
2023-05-12T09:27:54.613Z,9.43
2023-05-12T09:30:34.464Z,6.03
2023-05-12T09:33:10.640Z,6.47
2023-05-12T09:35:46.368Z,7.03
2023-05-12T09:38:17.063Z,8.50
2023-05-12T09:40:47.640Z,5.33
2023-05-12T09:43:18.395Z,4.85
2023-05-12T09:45:50.780Z,7.42
2023-05-12T09:48:22.255Z,8.60
2023-05-12T09:50:53.627Z,7.60
2023-05-12T09:53:24.171Z,7.47
2023-05-12T09:55:54.823Z,9.05
2023-05-12T09:58:27.942Z,27.40
2023-05-12T10:01:20.875Z,7.05
2023-05-12T10:03:33.955Z,5.65
2023-05-12T10:06:07.816Z,7.33
2023-05-12T10:08:44.686Z,8.25
2023-05-12T10:11:16.194Z,5.80
2023-05-12T10:13:47.383Z,9.03
2023-05-12T10:16:18.585Z,7.78
2023-05-12T10:18:51.061Z,6.25
2023-05-12T10:21:24.157Z,6.53
2023-05-12T10:23:59.783Z,8.85
2023-05-12T10:26:33.117Z,5.67
2023-05-12T10:29:04.011Z,5.70
2023-05-12T10:31:36.294Z,5.58
2023-05-12T10:34:07.417Z,5.55
2023-05-12T10:36:53.560Z,4.40
2023-05-12T10:39:27.240Z,6.37
2023-05-12T10:42:11.174Z,6.55
2023-05-12T10:44:52.724Z,6.28
2023-05-12T10:47:29.608Z,6.87
2023-05-12T10:50:01.101Z,7.20
2023-05-12T10:52:34.677Z,7.60
2023-05-12T10:55:06.224Z,11.10
2023-05-12T10:57:38.522Z,6.20
2023-05-12T11:00:13.902Z,5.58
2023-05-12T11:02:52.977Z,6.28
2023-05-12T11:05:29.410Z,5.45
2023-05-12T11:08:02.470Z,11.38
2023-05-12T11:10:35.674Z,9.05
2023-05-12T11:13:06.438Z,7.58
2023-05-12T11:15:38.391Z,10.90
2023-05-12T11:18:09.399Z,4.97
2023-05-12T11:20:39.971Z,5.55
2023-05-12T11:23:10.623Z,4.58
2023-05-12T11:25:43.461Z,11.08
2023-05-12T11:28:13.449Z,8.18
2023-05-12T11:30:54.694Z,7.67
2023-05-12T11:33:24.924Z,7.62
2023-05-12T11:35:55.804Z,5.83
2023-05-12T11:38:28.497Z,6.33
2023-05-12T11:40:59.290Z,5.33
2023-05-12T11:43:30.426Z,8.13
2023-05-12T11:46:01.487Z,6.12
2023-05-12T11:48:37.529Z,4.92
2023-05-12T11:51:09.451Z,10.50
2023-05-12T11:53:41.679Z,7.55
2023-05-12T11:56:15.320Z,8.58
2023-05-12T11:58:57.604Z,10.63
2023-05-12T12:01:28.409Z,9.75
2023-05-12T12:03:59.388Z,15.00
2023-05-12T12:06:30.064Z,12.63
2023-05-12T12:09:02.113Z,7.28
2023-05-12T12:11:34.605Z,8.00
2023-05-12T12:14:05.688Z,10.98
2023-05-12T12:16:36.444Z,11.97
2023-05-12T12:19:08.822Z,14.70
2023-05-12T12:21:41.420Z,11.63
2023-05-12T12:24:12.036Z,13.43
2023-05-12T12:26:42.814Z,13.60
2023-05-12T12:29:13.573Z,14.58
2023-05-12T12:31:44.497Z,11.30
2023-05-12T12:34:16.423Z,9.93
2023-05-12T12:36:48.135Z,13.53
2023-05-12T12:39:19.929Z,13.98
2023-05-12T12:41:50.912Z,15.20
2023-05-12T12:44:22.456Z,13.48
2023-05-12T12:46:54.547Z,10.53
2023-05-12T12:49:25.080Z,12.13
2023-05-12T12:51:55.836Z,11.35
2023-05-12T12:54:27.559Z,12.63
2023-05-12T12:56:58.461Z,10.40
2023-05-12T12:59:29.024Z,15.32
2023-05-12T13:02:00.108Z,10.05
2023-05-12T13:04:31.274Z,13.15
2023-05-12T13:07:02.184Z,11.73
2023-05-12T13:09:34.076Z,12.78
2023-05-12T13:12:06.273Z,13.58
2023-05-12T13:14:36.873Z,15.43
2023-05-12T13:17:08.127Z,15.13
2023-05-12T13:19:40.139Z,24.60
2023-05-12T13:22:11.111Z,18.70
2023-05-12T13:24:43.212Z,19.10
2023-05-12T13:27:13.858Z,20.92
2023-05-12T13:29:46.172Z,22.77
2023-05-12T13:32:17.427Z,12.70
2023-05-12T13:34:48.076Z,9.83
2023-05-12T13:37:18.906Z,15.28
2023-05-12T13:39:49.614Z,12.13
2023-05-12T13:42:22.176Z,15.63
2023-05-12T13:44:52.717Z,16.52
2023-05-12T13:47:23.385Z,18.98
2023-05-12T13:49:58.848Z,14.05
2023-05-12T13:52:27.971Z,16.52
2023-05-12T13:54:58.728Z,19.75
2023-05-12T13:57:29.456Z,9.58
2023-05-12T14:00:00.034Z,16.93
2023-05-12T14:02:30.843Z,15.80
2023-05-12T14:05:01.538Z,16.05
2023-05-12T14:07:32.222Z,16.73
2023-05-12T14:10:02.956Z,13.25
2023-05-12T14:12:34.237Z,11.88
2023-05-12T14:15:32.220Z,19.50
2023-05-12T14:17:38.797Z,15.58
2023-05-12T14:20:11.598Z,15.90
2023-05-12T14:22:43.002Z,10.03
2023-05-12T14:25:13.826Z,10.78
2023-05-12T14:27:46.260Z,11.30
2023-05-12T14:30:18.044Z,9.10
2023-05-12T14:32:48.778Z,20.72
2023-05-12T14:35:20.531Z,14.18
2023-05-12T14:37:51.224Z,13.75
2023-05-12T14:40:22.811Z,10.80
2023-05-12T14:42:55.446Z,16.87
2023-05-12T14:45:26.736Z,9.45
2023-05-12T14:47:57.624Z,12.80
2023-05-12T14:50:28.600Z,14.45
2023-05-12T14:52:59.327Z,10.40
2023-05-12T14:55:30.046Z,9.08
2023-05-12T14:58:01.257Z,11.22
2023-05-12T15:00:33.422Z,8.03
2023-05-12T15:03:05.531Z,9.38
2023-05-12T15:05:56.967Z,9.35
2023-05-12T15:08:10.655Z,13.03
2023-05-12T15:10:41.280Z,13.35
2023-05-12T15:13:13.837Z,11.93
2023-05-12T15:15:44.401Z,11.80
2023-05-12T15:18:15.243Z,13.22
2023-05-12T15:20:46.610Z,7.80
2023-05-12T15:23:17.264Z,12.65
2023-05-12T15:25:47.787Z,16.02
2023-05-12T15:28:18.407Z,12.78
2023-05-12T15:30:58.239Z,14.90
2023-05-12T15:33:30.464Z,13.65
2023-05-12T15:36:01.272Z,13.68
2023-05-12T15:38:32.111Z,11.78
2023-05-12T15:41:02.820Z,22.22
2023-05-12T15:43:33.531Z,9.03
2023-05-12T15:46:04.616Z,16.60
2023-05-12T15:48:36.119Z,18.27
2023-05-12T15:51:06.809Z,16.75
2023-05-12T15:53:37.386Z,18.77
2023-05-12T15:56:09.017Z,11.53
2023-05-12T15:58:42.390Z,11.33
2023-05-12T16:01:13.178Z,10.43
2023-05-12T16:03:44.194Z,14.30
2023-05-12T16:06:15.016Z,7.92
2023-05-12T16:08:45.874Z,12.13
2023-05-12T16:11:16.753Z,13.53
2023-05-12T16:13:47.291Z,7.60
2023-05-12T16:16:17.936Z,9.80
2023-05-12T16:18:48.610Z,11.75
2023-05-12T16:21:20.066Z,10.23
2023-05-12T16:23:50.830Z,10.05
2023-05-12T16:26:21.399Z,10.45
2023-05-12T16:28:52.029Z,7.72
2023-05-12T16:31:22.688Z,10.13
2023-05-12T16:33:53.370Z,12.95
2023-05-12T16:36:25.712Z,9.98
2023-05-12T16:38:57.136Z,16.17
2023-05-12T16:41:28.782Z,14.20
2023-05-12T16:44:00.736Z,15.48
2023-05-12T16:46:32.837Z,12.33
2023-05-12T16:49:04.109Z,14.28
2023-05-12T16:51:35.664Z,12.73
2023-05-12T16:54:06.386Z,14.28
2023-05-12T16:56:39.931Z,11.40
2023-05-12T16:59:10.515Z,16.27
2023-05-12T17:01:41.699Z,14.05
2023-05-12T17:04:12.563Z,13.60
2023-05-12T17:06:44.637Z,12.78
2023-05-12T17:09:15.214Z,14.13
2023-05-12T17:11:45.836Z,13.65
2023-05-12T17:14:19.413Z,12.37
2023-05-12T17:16:50.303Z,12.85
2023-05-12T17:19:22.103Z,10.80
2023-05-12T17:21:52.782Z,12.50
2023-05-12T17:24:23.564Z,12.35
2023-05-12T17:26:54.902Z,15.25
2023-05-12T17:29:26.724Z,8.10
2023-05-12T17:31:57.473Z,11.18
2023-05-12T17:34:29.900Z,9.68
2023-05-12T17:37:07.712Z,12.53
2023-05-12T17:39:41.132Z,10.65
2023-05-12T17:42:11.851Z,14.68
2023-05-12T17:44:45.509Z,15.90
2023-05-12T17:47:17.089Z,11.97
2023-05-12T17:49:47.954Z,11.28
2023-05-12T17:52:19.312Z,8.50
2023-05-12T17:54:50.031Z,8.10
2023-05-12T17:57:21.899Z,11.60
2023-05-12T17:59:53.219Z,12.03
2023-05-12T18:02:25.721Z,13.40
2023-05-12T18:04:56.541Z,11.60
2023-05-12T18:07:28.814Z,12.80
2023-05-12T18:10:00.384Z,15.43
2023-05-12T18:12:31.592Z,16.37
2023-05-12T18:15:04.801Z,14.73
2023-05-12T18:17:37.019Z,12.13
2023-05-12T18:20:08.905Z,13.25
2023-05-12T18:22:39.654Z,13.38
2023-05-12T18:25:12.756Z,10.82
2023-05-12T18:27:43.411Z,13.43
2023-05-12T18:30:15.767Z,12.63
2023-05-12T18:32:46.417Z,9.83
2023-05-12T18:35:17.206Z,17.25
2023-05-12T18:37:48.058Z,14.10
2023-05-12T18:40:18.708Z,7.05
2023-05-12T18:42:50.596Z,11.45
2023-05-12T18:45:23.146Z,7.50
2023-05-12T18:47:53.845Z,10.05
2023-05-12T18:50:25.340Z,12.58
2023-05-12T18:52:57.041Z,8.75
2023-05-12T18:55:28.551Z,6.92
2023-05-12T18:58:01.150Z,9.78
2023-05-12T19:00:33.483Z,10.00
2023-05-12T19:03:04.260Z,5.53
2023-05-12T19:05:35.200Z,10.60
2023-05-12T19:08:06.207Z,9.25
2023-05-12T19:10:39.434Z,10.15
2023-05-12T19:13:09.560Z,11.20
2023-05-12T19:15:40.336Z,6.40
2023-05-12T19:18:15.519Z,8.58
2023-05-12T19:20:47.905Z,11.20
2023-05-12T19:23:20.063Z,7.67
2023-05-12T19:25:50.987Z,10.03
2023-05-12T19:28:22.008Z,8.30
2023-05-12T19:30:55.512Z,10.80
2023-05-12T19:33:27.528Z,8.73
2023-05-12T19:35:59.265Z,11.15
2023-05-12T19:38:30.526Z,13.80
2023-05-12T19:41:01.079Z,14.93
2023-05-12T19:43:31.666Z,14.55
2023-05-12T19:46:02.506Z,13.58
2023-05-12T19:48:33.116Z,11.08
2023-05-12T19:51:03.875Z,11.50
2023-05-12T19:53:34.551Z,10.28
2023-05-12T19:56:07.980Z,15.25
2023-05-12T19:58:38.863Z,8.28
2023-05-12T20:01:09.615Z,8.83
2023-05-12T20:03:40.698Z,8.80
2023-05-12T20:06:11.843Z,7.50
2023-05-12T20:08:45.586Z,7.53
2023-05-12T20:11:16.174Z,10.48
2023-05-12T20:13:46.791Z,6.87
2023-05-12T20:16:17.379Z,7.12
2023-05-12T20:18:48.031Z,14.15
2023-05-12T20:21:19.363Z,9.60
2023-05-12T20:23:51.681Z,10.70
2023-05-12T20:26:22.354Z,8.43
2023-05-12T20:28:53.329Z,7.87
2023-05-12T20:31:24.191Z,9.58
2023-05-12T20:33:58.368Z,8.18
2023-05-12T20:36:34.451Z,9.38
2023-05-12T20:39:06.547Z,8.33
2023-05-12T20:41:40.122Z,9.80
2023-05-12T20:44:10.782Z,9.38
2023-05-12T20:46:41.597Z,10.95
2023-05-12T20:49:12.992Z,12.90
2023-05-12T20:51:44.011Z,9.98
2023-05-12T20:54:14.576Z,9.88
2023-05-12T20:56:45.308Z,9.60
2023-05-12T20:59:15.897Z,9.15
2023-05-12T21:01:46.565Z,8.65
2023-05-12T21:04:18.011Z,8.40
2023-05-12T21:06:48.689Z,9.00
2023-05-12T21:09:20.203Z,10.85
2023-05-12T21:11:53.302Z,9.08
2023-05-12T21:14:25.539Z,10.82
2023-05-12T21:16:56.547Z,7.92
2023-05-12T21:19:27.256Z,11.95
2023-05-12T21:21:58.743Z,8.95
2023-05-12T21:24:29.490Z,8.03
2023-05-12T21:27:03.290Z,10.53
2023-05-12T21:29:35.181Z,7.65
2023-05-12T21:32:08.525Z,8.88
2023-05-12T21:34:38.488Z,8.58
2023-05-12T21:37:09.106Z,10.55
2023-05-12T21:39:40.370Z,16.10
2023-05-12T21:42:10.812Z,13.85
2023-05-12T21:44:41.314Z,10.90
2023-05-12T21:47:12.293Z,13.95
2023-05-12T21:49:44.870Z,16.00
2023-05-12T21:52:16.042Z,9.25
2023-05-12T21:54:48.110Z,8.50
2023-05-12T21:57:18.863Z,10.08
2023-05-12T21:59:49.872Z,9.98
2023-05-12T22:02:20.788Z,9.88
2023-05-12T22:04:52.193Z,10.25
2023-05-12T22:07:23.688Z,9.73
2023-05-12T22:09:54.218Z,9.73
2023-05-12T22:12:24.720Z,9.55
2023-05-12T22:14:55.255Z,10.82
2023-05-12T22:17:26.011Z,8.35
2023-05-12T22:19:56.524Z,13.32
2023-05-12T22:22:27.383Z,9.00
2023-05-12T22:24:59.079Z,12.90
2023-05-12T22:27:29.598Z,11.15
2023-05-12T22:30:00.198Z,17.85
2023-05-12T22:32:30.871Z,14.75
2023-05-12T22:35:01.750Z,16.30
2023-05-12T22:37:32.417Z,13.25
2023-05-12T22:40:03.869Z,12.18
2023-05-12T22:42:34.524Z,9.83
2023-05-12T22:45:05.438Z,10.50
2023-05-12T22:47:36.255Z,13.00
2023-05-12T22:50:10.581Z,12.70
2023-05-12T22:52:41.567Z,20.20
2023-05-12T22:55:12.249Z,13.18
2023-05-12T22:57:44.646Z,17.07
2023-05-12T23:00:16.109Z,14.15
2023-05-12T23:02:46.678Z,9.98
2023-05-12T23:05:17.411Z,13.65
2023-05-12T23:07:49.527Z,11.78
2023-05-12T23:10:20.552Z,12.05
2023-05-12T23:12:51.573Z,12.40
2023-05-12T23:15:22.330Z,13.25
2023-05-12T23:17:53.437Z,11.12
2023-05-12T23:20:25.233Z,14.78
2023-05-12T23:22:56.208Z,12.30
2023-05-12T23:25:26.834Z,14.30
2023-05-12T23:27:57.302Z,13.15
2023-05-12T23:30:29.636Z,22.00
2023-05-12T23:33:00.284Z,24.27
2023-05-12T23:35:31.132Z,15.32
2023-05-12T23:38:01.754Z,22.02
2023-05-12T23:40:33.493Z,21.65
2023-05-12T23:43:03.920Z,14.70
2023-05-12T23:45:35.370Z,14.63
2023-05-12T23:48:06.267Z,19.27
2023-05-12T23:50:36.925Z,17.60
2023-05-12T23:53:07.423Z,15.48
2023-05-12T23:55:38.566Z,14.95
2023-05-12T23:58:10.739Z,17.85
